Time;durP1;ratioP1;P1;durP2;ratioP2;P2;SDS_P1;SDS_P2;PMS_P1;PMS_P2;Temp;Humidity;BMP_temperature;BMP_pressure;BME280_temperature;BME280_humidity;BME280_pressure;Samples;Min_cycle;Max_cycle;Signal;HPM_P1;HPM_P2
2022/03/30 00:01:42;;;;;;;26.27;10.68;;;11.00;99.90;;;;;;1866230;77;21199;-74
2022/03/30 00:04:09;;;;;;;20.52;10.80;;;11.10;99.90;;;;;;1866377;77;21095;-74
2022/03/30 00:09:32;;;;;;;18.77;10.80;;;11.10;99.90;;;;;;2048948;69;28316;-73
2022/03/30 00:12:00;;;;;;;22.98;10.98;;;11.30;99.90;;;;;;2008455;70;21073;-74
2022/03/30 00:14:28;;;;;;;22.10;10.35;;;11.20;99.90;;;;;;2008602;70;21086;-75
2022/03/30 00:16:55;;;;;;;20.57;11.25;;;11.20;99.90;;;;;;2011478;70;21088;-74
2022/03/30 00:19:22;;;;;;;22.62;10.58;;;10.90;99.90;;;;;;2009359;70;21088;-74
2022/03/30 00:21:49;;;;;;;29.32;11.28;;;10.80;99.90;;;;;;2010256;71;21058;-74
2022/03/30 00:24:17;;;;;;;28.30;11.08;;;11.10;99.90;;;;;;2006521;70;21104;-73
2022/03/30 00:26:44;;;;;;;25.12;11.50;;;11.20;99.90;;;;;;2010422;71;21013;-74
2022/03/30 00:29:12;;;;;;;25.25;11.08;;;11.30;99.90;;;;;;2014724;70;21223;-74
2022/03/30 00:31:39;;;;;;;21.25;11.03;;;11.10;99.90;;;;;;2008476;70;21141;-74
2022/03/30 00:34:07;;;;;;;24.52;11.05;;;11.00;99.90;;;;;;2007710;70;21080;-75
2022/03/30 00:36:34;;;;;;;29.63;10.28;;;11.00;99.90;;;;;;1999606;70;21058;-74
2022/03/30 00:39:01;;;;;;;20.12;10.28;;;10.80;99.90;;;;;;2011806;70;21079;-75
2022/03/30 00:41:29;;;;;;;23.45;10.98;;;10.90;99.90;;;;;;2011868;70;21059;-74
2022/03/30 00:43:58;;;;;;;22.95;10.78;;;11.10;99.90;;;;;;2006370;70;21224;-75
2022/03/30 00:46:25;;;;;;;16.97;9.05;;;11.10;99.90;;;;;;2010350;70;21143;-75
2022/03/30 00:48:52;;;;;;;20.43;10.00;;;11.10;99.90;;;;;;2011166;71;21227;-74
2022/03/30 00:51:20;;;;;;;20.50;9.15;;;11.00;99.90;;;;;;2002673;70;21476;-76
2022/03/30 00:53:47;;;;;;;24.18;10.28;;;11.20;99.90;;;;;;2010405;70;21172;-75
2022/03/30 00:56:14;;;;;;;20.10;9.83;;;11.10;99.90;;;;;;2004430;70;21061;-75
2022/03/30 00:58:42;;;;;;;19.37;9.88;;;11.20;99.90;;;;;;2018865;70;21090;-75
2022/03/30 01:01:09;;;;;;;25.95;11.25;;;11.30;99.90;;;;;;1985221;71;21087;-73
2022/03/30 01:03:36;;;;;;;17.80;10.40;;;11.30;99.90;;;;;;2010198;71;21095;-75
2022/03/30 01:06:04;;;;;;;26.30;10.58;;;11.20;99.90;;;;;;2010318;70;21169;-75
2022/03/30 01:08:31;;;;;;;24.85;11.15;;;11.20;99.90;;;;;;2012717;70;21103;-74
2022/03/30 01:10:59;;;;;;;28.52;10.85;;;11.20;99.90;;;;;;2009953;70;21138;-74
2022/03/30 01:13:26;;;;;;;25.17;11.73;;;11.20;99.90;;;;;;1986462;71;21060;-74
2022/03/30 01:15:54;;;;;;;33.85;12.13;;;11.10;99.90;;;;;;2010481;71;21486;-74
2022/03/30 01:18:21;;;;;;;22.87;11.35;;;10.80;99.90;;;;;;2006888;70;21082;-72
2022/03/30 01:20:49;;;;;;;27.45;11.38;;;10.70;99.90;;;;;;2006245;70;21501;-73
2022/03/30 01:23:17;;;;;;;28.38;11.25;;;10.80;99.90;;;;;;2004232;70;21157;-73
2022/03/30 01:25:45;;;;;;;20.68;10.63;;;10.70;99.90;;;;;;2007106;70;21148;-73
2022/03/30 01:28:12;;;;;;;29.23;11.35;;;10.90;99.90;;;;;;2002856;70;21086;-74
2022/03/30 01:33:26;;;;;;;22.25;10.88;;;11.20;99.90;;;;;;2009185;70;21561;-74
2022/03/30 01:35:53;;;;;;;18.40;10.80;;;10.90;99.90;;;;;;2009714;70;21516;-73
2022/03/30 01:38:21;;;;;;;28.83;12.00;;;10.70;99.90;;;;;;2009637;70;21166;-73
2022/03/30 01:40:48;;;;;;;25.57;11.12;;;10.70;99.90;;;;;;2008037;70;21189;-73
2022/03/30 01:43:16;;;;;;;25.88;10.38;;;10.80;99.90;;;;;;2014408;70;21133;-75
2022/03/30 01:45:43;;;;;;;24.00;10.50;;;11.00;99.90;;;;;;2007151;70;21162;-73
2022/03/30 01:48:11;;;;;;;22.65;10.28;;;11.00;99.90;;;;;;2009796;71;21057;-74
2022/03/30 01:50:38;;;;;;;19.48;10.32;;;11.00;99.90;;;;;;2009784;70;21151;-74
2022/03/30 01:53:05;;;;;;;27.37;11.60;;;11.00;99.90;;;;;;2009674;71;21161;-74
2022/03/30 01:55:33;;;;;;;22.73;10.60;;;10.90;99.90;;;;;;2009515;70;21086;-74
2022/03/30 01:58:01;;;;;;;29.52;11.70;;;10.70;99.90;;;;;;2009695;71;21530;-74
2022/03/30 02:00:29;;;;;;;28.47;11.55;;;10.90;99.90;;;;;;2009505;70;21151;-73
2022/03/30 02:02:56;;;;;;;24.25;11.78;;;10.90;99.90;;;;;;2001533;70;21056;-73
2022/03/30 02:05:23;;;;;;;24.63;10.35;;;10.90;99.90;;;;;;2003921;70;21085;-73
2022/03/30 02:07:51;;;;;;;19.57;10.38;;;10.80;99.90;;;;;;2010645;70;21535;-73
2022/03/30 02:10:18;;;;;;;24.15;11.73;;;10.80;99.90;;;;;;2027642;71;21073;-73
2022/03/30 02:12:45;;;;;;;21.62;11.12;;;10.90;99.90;;;;;;2020899;70;21205;-74
2022/03/30 02:15:13;;;;;;;22.52;12.05;;;11.00;99.90;;;;;;2010755;70;21061;-74
2022/03/30 02:17:41;;;;;;;25.02;11.63;;;10.90;99.90;;;;;;2007245;70;21065;-73
2022/03/30 02:20:08;;;;;;;22.77;10.70;;;11.00;99.90;;;;;;2012437;70;21089;-73
2022/03/30 02:22:36;;;;;;;20.52;11.38;;;10.90;99.90;;;;;;2008420;70;21144;-74
2022/03/30 02:25:03;;;;;;;20.68;10.95;;;10.80;99.90;;;;;;2014026;70;21037;-74
2022/03/30 02:27:30;;;;;;;18.15;10.53;;;10.70;99.90;;;;;;2012472;70;21255;-74
2022/03/30 02:29:58;;;;;;;32.23;11.93;;;10.60;99.90;;;;;;2016247;70;21117;-73
2022/03/30 02:32:25;;;;;;;22.60;10.75;;;10.50;99.90;;;;;;2012091;70;21101;-73
2022/03/30 02:34:52;;;;;;;27.73;10.40;;;10.50;99.90;;;;;;2013087;70;21242;-73
2022/03/30 02:37:20;;;;;;;19.37;10.28;;;10.80;99.90;;;;;;2004383;70;21094;-73
2022/03/30 02:39:47;;;;;;;23.60;11.25;;;10.60;99.90;;;;;;2000074;70;21158;-73
2022/03/30 02:42:14;;;;;;;23.47;10.58;;;10.50;99.90;;;;;;2008114;70;21246;-73
2022/03/30 02:44:42;;;;;;;21.93;11.30;;;10.50;99.90;;;;;;2027602;71;21147;-73
2022/03/30 02:47:09;;;;;;;26.95;11.83;;;10.50;99.90;;;;;;2008354;70;21156;-73
2022/03/30 02:49:36;;;;;;;22.42;12.20;;;10.50;99.90;;;;;;2007450;70;21139;-73
2022/03/30 02:52:04;;;;;;;24.05;11.65;;;10.50;99.90;;;;;;2011091;70;21066;-72
2022/03/30 02:54:32;;;;;;;21.82;11.80;;;10.40;99.90;;;;;;2009096;70;21066;-74
2022/03/30 02:56:59;;;;;;;23.80;11.22;;;10.20;99.90;;;;;;2009551;71;21051;-75
2022/03/30 02:59:27;;;;;;;26.07;12.25;;;10.30;99.90;;;;;;2002535;70;21234;-73
2022/03/30 03:01:54;;;;;;;40.60;12.60;;;10.30;99.90;;;;;;2016571;71;21051;-75
2022/03/30 03:04:23;;;;;;;28.83;12.45;;;10.30;99.90;;;;;;2009089;70;21131;-72
2022/03/30 03:06:50;;;;;;;30.45;11.83;;;10.30;99.90;;;;;;2012705;71;21048;-73
2022/03/30 03:09:18;;;;;;;19.23;11.60;;;10.20;99.90;;;;;;2015510;70;21512;-74
2022/03/30 03:11:45;;;;;;;21.45;12.03;;;10.30;99.90;;;;;;2013509;71;21078;-73
2022/03/30 03:14:13;;;;;;;19.45;10.50;;;10.40;99.90;;;;;;2009556;70;21087;-74
2022/03/30 03:16:40;;;;;;;22.65;11.57;;;10.40;99.90;;;;;;2009124;70;21070;-74
2022/03/30 03:19:07;;;;;;;17.02;11.25;;;10.40;99.90;;;;;;2015842;70;21170;-73
2022/03/30 03:21:35;;;;;;;29.52;12.47;;;10.40;99.90;;;;;;2011546;71;21031;-74
2022/03/30 03:24:02;;;;;;;22.70;11.88;;;10.50;99.90;;;;;;2006215;70;21234;-73
2022/03/30 03:26:30;;;;;;;23.02;11.48;;;10.40;99.90;;;;;;2018127;70;21071;-73
2022/03/30 03:28:57;;;;;;;25.68;12.25;;;10.40;99.90;;;;;;2020734;70;21127;-76
2022/03/30 03:31:24;;;;;;;21.60;11.55;;;10.40;99.90;;;;;;2006821;70;21085;-74
2022/03/30 03:33:52;;;;;;;22.42;12.50;;;10.30;99.90;;;;;;2001822;70;21160;-74
2022/03/30 03:36:19;;;;;;;30.72;13.40;;;10.40;99.90;;;;;;2009581;70;21146;-74
2022/03/30 03:38:47;;;;;;;22.67;12.58;;;10.40;99.90;;;;;;2009762;71;21551;-74
2022/03/30 03:41:14;;;;;;;28.77;12.40;;;10.40;99.90;;;;;;2006192;70;21153;-75
2022/03/30 03:43:42;;;;;;;26.25;13.20;;;10.40;99.90;;;;;;2020480;71;21073;-74
2022/03/30 03:46:09;;;;;;;21.87;12.35;;;10.60;99.90;;;;;;2020979;70;21152;-74
2022/03/30 03:48:36;;;;;;;24.57;11.55;;;10.60;99.90;;;;;;2003838;70;21503;-74
2022/03/30 03:51:04;;;;;;;32.40;13.98;;;10.50;99.90;;;;;;2008567;70;21082;-74
2022/03/30 03:53:33;;;;;;;25.45;13.20;;;10.40;99.90;;;;;;2009602;70;21486;-74
2022/03/30 03:56:00;;;;;;;26.15;13.45;;;10.20;99.90;;;;;;2007938;70;21095;-74
2022/03/30 03:58:27;;;;;;;23.10;12.07;;;10.50;99.90;;;;;;2010772;70;21165;-74
2022/03/30 04:00:55;;;;;;;23.22;11.30;;;10.50;99.90;;;;;;2005461;70;21152;-74
2022/03/30 04:03:23;;;;;;;33.23;12.15;;;10.60;99.90;;;;;;2007080;70;21093;-74
2022/03/30 04:05:50;;;;;;;21.10;11.48;;;10.70;99.90;;;;;;2017150;70;21155;-74
2022/03/30 04:08:17;;;;;;;22.30;13.48;;;10.60;99.90;;;;;;2002723;70;21277;-74
2022/03/30 04:10:46;;;;;;;30.85;13.15;;;10.40;99.90;;;;;;2023317;71;21461;-75
2022/03/30 04:13:14;;;;;;;28.90;13.00;;;10.50;99.90;;;;;;2009695;70;21130;-74
2022/03/30 04:15:41;;;;;;;24.82;12.90;;;10.70;99.90;;;;;;1994852;70;21185;-75
2022/03/30 04:18:08;;;;;;;28.50;13.50;;;10.50;99.90;;;;;;2012473;70;21086;-74
2022/03/30 04:20:37;;;;;;;28.12;13.08;;;10.60;99.90;;;;;;2013035;70;21065;-74
2022/03/30 04:23:04;;;;;;;37.42;13.25;;;10.40;99.90;;;;;;2005830;70;21182;-74
2022/03/30 04:25:32;;;;;;;24.80;12.20;;;10.30;99.90;;;;;;2009587;70;21154;-75
2022/03/30 04:27:59;;;;;;;24.87;12.23;;;10.40;99.90;;;;;;2011434;70;21067;-75
2022/03/30 04:30:26;;;;;;;32.13;13.98;;;10.50;99.90;;;;;;2027282;71;21522;-74
2022/03/30 04:32:54;;;;;;;25.12;12.43;;;10.30;99.90;;;;;;2011447;70;21062;-74
2022/03/30 04:35:30;;;;;;;27.37;12.73;;;10.20;99.90;;;;;;2013158;70;21502;-75
2022/03/30 04:37:50;;;;;;;23.70;12.40;;;10.20;99.90;;;;;;1998328;70;21177;-75
2022/03/30 04:40:17;;;;;;;30.12;12.93;;;10.30;99.90;;;;;;2005814;70;21122;-74
2022/03/30 04:42:45;;;;;;;27.42;12.55;;;10.40;99.90;;;;;;2009702;70;21088;-74
2022/03/30 04:45:12;;;;;;;29.72;13.13;;;10.40;99.90;;;;;;2009404;71;21061;-75
2022/03/30 04:47:39;;;;;;;27.17;13.88;;;10.30;99.90;;;;;;2009431;71;21053;-74
2022/03/30 04:50:09;;;;;;;27.65;13.88;;;10.10;99.90;;;;;;2014709;70;21478;-74
2022/03/30 04:52:36;;;;;;;22.07;13.08;;;10.10;99.90;;;;;;1997771;70;21493;-73
2022/03/30 04:55:05;;;;;;;41.10;14.13;;;10.20;99.90;;;;;;2008932;70;21073;-74
2022/03/30 04:57:32;;;;;;;27.98;13.70;;;10.10;99.90;;;;;;2010934;71;21123;-74
2022/03/30 05:00:00;;;;;;;22.45;13.20;;;10.00;99.90;;;;;;2009639;70;21238;-75
2022/03/30 05:02:27;;;;;;;27.05;13.38;;;10.00;99.90;;;;;;2007166;70;21182;-74
2022/03/30 05:04:54;;;;;;;21.73;12.75;;;10.10;99.90;;;;;;2009599;70;21150;-74
2022/03/30 05:07:22;;;;;;;25.10;14.40;;;10.10;99.90;;;;;;2009755;71;21062;-75
2022/03/30 05:09:49;;;;;;;27.32;14.30;;;10.10;99.90;;;;;;2001957;70;21145;-75
2022/03/30 05:12:16;;;;;;;37.85;15.53;;;10.10;99.90;;;;;;2009788;71;21044;-75
2022/03/30 05:14:44;;;;;;;35.00;15.80;;;10.00;99.90;;;;;;2009882;71;21119;-75
2022/03/30 05:17:11;;;;;;;30.45;15.15;;;9.80;99.90;;;;;;2009686;71;21132;-75
2022/03/30 05:19:39;;;;;;;29.18;15.03;;;9.80;99.90;;;;;;2007467;70;21085;-75
2022/03/30 05:22:06;;;;;;;37.17;15.98;;;9.80;99.90;;;;;;2017840;70;21140;-73
2022/03/30 05:24:33;;;;;;;34.60;15.10;;;9.70;99.90;;;;;;2009792;70;21069;-72
2022/03/30 05:27:02;;;;;;;26.95;14.28;;;9.70;99.90;;;;;;2008767;70;21075;-73
2022/03/30 05:29:29;;;;;;;36.68;15.75;;;9.70;99.90;;;;;;2003387;70;21090;-73
2022/03/30 05:31:58;;;;;;;29.98;14.38;;;9.60;99.90;;;;;;1998851;70;21482;-74
2022/03/30 05:34:26;;;;;;;32.38;15.65;;;9.60;99.90;;;;;;2009804;70;21124;-75
2022/03/30 05:36:53;;;;;;;26.75;15.03;;;9.60;99.90;;;;;;2009860;70;21036;-74
2022/03/30 05:39:20;;;;;;;31.25;15.83;;;9.60;99.90;;;;;;2009205;70;21146;-74
2022/03/30 05:41:48;;;;;;;28.05;14.75;;;9.50;99.90;;;;;;1999299;70;21150;-74
2022/03/30 05:44:15;;;;;;;54.80;16.02;;;9.50;99.90;;;;;;2015655;70;21082;-75
2022/03/30 05:46:42;;;;;;;30.00;14.60;;;9.40;99.90;;;;;;2009188;70;21068;-74
2022/03/30 05:49:10;;;;;;;43.95;15.45;;;9.40;99.90;;;;;;2006054;70;21217;-73
2022/03/30 05:51:38;;;;;;;41.55;16.60;;;9.40;99.90;;;;;;2007354;70;21218;-73
2022/03/30 05:54:07;;;;;;;31.42;15.48;;;9.20;99.90;;;;;;2010389;70;21069;-74
2022/03/30 05:59:20;;;;;;;37.15;15.58;;;9.40;99.90;;;;;;2007541;70;21106;-75
2022/03/30 06:01:47;;;;;;;33.23;14.78;;;9.40;99.90;;;;;;2003593;70;21075;-75
2022/03/30 06:04:14;;;;;;;26.90;14.73;;;9.50;99.90;;;;;;2010606;70;21105;-74
2022/03/30 06:06:42;;;;;;;26.73;15.78;;;9.60;99.90;;;;;;2009661;71;21012;-74
2022/03/30 06:09:09;;;;;;;24.60;15.48;;;9.40;99.90;;;;;;1998388;70;21031;-74
2022/03/30 06:11:36;;;;;;;33.33;15.30;;;9.40;99.90;;;;;;2005800;70;21036;-75
2022/03/30 06:14:03;;;;;;;26.20;14.75;;;9.50;99.90;;;;;;2003342;70;21026;-75
2022/03/30 06:16:31;;;;;;;32.90;15.35;;;9.50;99.90;;;;;;2020927;71;21073;-74
2022/03/30 06:18:58;;;;;;;29.98;15.00;;;9.50;99.90;;;;;;1985359;71;21207;-73
2022/03/30 06:21:25;;;;;;;26.35;14.95;;;9.50;99.90;;;;;;2008277;70;21015;-74
2022/03/30 06:23:53;;;;;;;30.10;15.35;;;9.60;99.90;;;;;;2003740;70;21187;-74
2022/03/30 06:26:20;;;;;;;35.35;15.50;;;9.60;99.90;;;;;;2019493;71;20994;-74
2022/03/30 06:28:49;;;;;;;25.52;13.80;;;9.70;99.90;;;;;;2009792;70;21094;-74
2022/03/30 06:31:19;;;;;;;30.17;15.10;;;9.70;99.90;;;;;;2012312;71;21451;-75
2022/03/30 06:33:47;;;;;;;29.32;15.10;;;9.60;99.90;;;;;;2009744;71;20997;-73
2022/03/30 06:36:14;;;;;;;37.38;14.87;;;9.50;99.90;;;;;;2012510;70;21029;-71
2022/03/30 06:38:42;;;;;;;25.08;14.83;;;9.60;99.90;;;;;;2008665;70;21170;-71
2022/03/30 06:41:10;;;;;;;31.07;14.68;;;9.50;99.90;;;;;;2006802;70;21039;-72
2022/03/30 06:43:42;;;;;;;30.02;15.43;;;9.50;99.90;;;;;;2009337;70;21464;-72
2022/03/30 06:46:08;;;;;;;29.77;14.93;;;9.60;99.90;;;;;;2008658;70;21132;-72
2022/03/30 06:48:35;;;;;;;40.78;15.10;;;9.60;99.90;;;;;;2004669;70;21081;-71
2022/03/30 06:51:03;;;;;;;35.40;15.08;;;9.50;99.90;;;;;;2004751;70;21038;-72
2022/03/30 06:53:30;;;;;;;37.85;16.65;;;9.50;99.90;;;;;;2015166;70;21154;-71
2022/03/30 06:55:59;;;;;;;30.00;15.38;;;9.40;99.90;;;;;;2001114;70;21032;-72
2022/03/30 06:58:26;;;;;;;26.37;15.68;;;9.30;99.90;;;;;;2019131;70;21051;-72
2022/03/30 07:00:54;;;;;;;31.90;15.30;;;9.30;99.90;;;;;;2006102;70;21164;-75
2022/03/30 07:03:25;;;;;;;27.25;16.15;;;9.50;99.90;;;;;;2007273;70;21105;-75
2022/03/30 07:05:51;;;;;;;27.58;15.32;;;9.30;99.90;;;;;;2004588;70;21199;-75
2022/03/30 07:10:56;;;;;;;31.00;14.35;;;9.40;99.90;;;;;;1854471;76;21516;-78
2022/03/30 07:13:24;;;;;;;32.70;16.20;;;9.30;99.90;;;;;;2009701;70;21065;-75
2022/03/30 07:15:51;;;;;;;32.25;15.50;;;9.30;99.90;;;;;;2005761;70;21272;-73
2022/03/30 07:18:19;;;;;;;26.15;15.05;;;9.30;99.90;;;;;;2009036;70;21524;-74
2022/03/30 07:20:47;;;;;;;31.17;15.63;;;9.30;99.90;;;;;;2009564;71;21487;-73
2022/03/30 07:23:14;;;;;;;29.27;15.63;;;9.40;99.90;;;;;;2006259;70;21216;-75
2022/03/30 07:25:42;;;;;;;35.65;16.75;;;9.40;99.90;;;;;;2013089;70;21087;-74
2022/03/30 07:28:09;;;;;;;32.65;15.05;;;9.30;99.90;;;;;;2005318;70;21506;-75
2022/03/30 07:30:37;;;;;;;43.42;15.70;;;9.40;99.90;;;;;;2002819;70;21153;-75
2022/03/30 07:33:05;;;;;;;35.40;15.15;;;9.40;99.90;;;;;;2006992;70;21185;-75
2022/03/30 07:35:32;;;;;;;29.70;15.15;;;9.30;99.90;;;;;;2013861;70;21544;-75
2022/03/30 07:38:00;;;;;;;25.88;15.13;;;9.30;99.90;;;;;;1998572;70;21153;-73
2022/03/30 07:40:29;;;;;;;28.60;14.75;;;9.40;99.90;;;;;;2009868;70;21078;-74
2022/03/30 07:42:57;;;;;;;26.87;13.50;;;9.40;99.90;;;;;;2009373;70;21229;-73
2022/03/30 07:45:24;;;;;;;32.20;15.03;;;9.50;99.90;;;;;;2020182;71;21138;-75
2022/03/30 07:47:52;;;;;;;31.00;14.85;;;9.60;99.90;;;;;;2005928;70;21091;-75
2022/03/30 07:50:19;;;;;;;31.50;14.25;;;9.50;99.90;;;;;;2012379;71;21117;-75
2022/03/30 07:52:46;;;;;;;25.77;14.15;;;9.50;99.90;;;;;;2009458;70;21234;-74
2022/03/30 07:55:13;;;;;;;26.27;13.75;;;9.50;99.90;;;;;;2009511;70;21084;-75
2022/03/30 07:57:42;;;;;;;41.30;14.23;;;9.50;99.90;;;;;;2009735;71;21033;-75
2022/03/30 08:00:12;;;;;;;34.35;14.33;;;9.60;99.90;;;;;;2002347;70;21080;-74
2022/03/30 08:02:39;;;;;;;30.57;14.20;;;9.70;99.90;;;;;;2012243;70;21112;-75
2022/03/30 08:05:10;;;;;;;35.98;14.03;;;9.80;99.90;;;;;;2012915;70;21153;-74
2022/03/30 08:07:43;;;;;;;35.73;14.87;;;9.80;99.90;;;;;;2006443;70;21228;-75
2022/03/30 08:10:10;;;;;;;35.50;14.80;;;9.90;99.90;;;;;;2002880;70;21496;-75
2022/03/30 08:12:50;;;;;;;32.33;14.63;;;9.80;99.90;;;;;;2010040;70;21134;-75
2022/03/30 08:15:18;;;;;;;30.00;13.25;;;9.80;99.90;;;;;;2003228;70;21512;-72
2022/03/30 08:17:53;;;;;;;27.87;12.25;;;9.80;99.90;;;;;;2002666;70;21081;-70
2022/03/30 08:23:07;;;;;;;33.75;12.95;;;10.10;99.90;;;;;;2014260;70;21097;-72
2022/03/30 08:25:35;;;;;;;32.95;12.68;;;10.20;99.90;;;;;;2005873;70;21104;-70
2022/03/30 08:28:03;;;;;;;28.55;12.63;;;10.10;99.90;;;;;;2005748;70;21140;-70
2022/03/30 08:30:32;;;;;;;35.10;12.05;;;10.10;99.90;;;;;;2005834;70;21115;-70
2022/03/30 08:33:01;;;;;;;31.12;11.83;;;10.20;99.90;;;;;;2009812;70;21154;-72
2022/03/30 08:35:29;;;;;;;28.73;11.88;;;10.10;99.90;;;;;;2012917;70;21652;-71
2022/03/30 08:37:57;;;;;;;34.70;12.05;;;10.20;99.90;;;;;;2006327;70;21565;-71
2022/03/30 08:40:24;;;;;;;26.48;11.75;;;10.30;99.90;;;;;;2012719;70;21154;-71
2022/03/30 08:42:53;;;;;;;37.42;12.33;;;10.20;99.90;;;;;;2006539;70;21514;-71
2022/03/30 08:45:21;;;;;;;34.03;11.73;;;10.30;99.90;;;;;;2008465;70;21250;-71
2022/03/30 08:47:53;;;;;;;36.70;11.53;;;10.30;99.90;;;;;;2008761;70;21184;-71
2022/03/30 08:50:23;;;;;;;28.83;10.85;;;10.30;99.90;;;;;;2014989;70;21512;-70
2022/03/30 08:52:52;;;;;;;30.88;11.30;;;10.30;99.90;;;;;;2007273;70;21437;-70
2022/03/30 08:58:18;;;;;;;36.05;11.12;;;10.20;99.90;;;;;;1878273;75;21126;-72
2022/03/30 09:00:49;;;;;;;29.12;10.43;;;10.00;99.90;;;;;;1920337;73;21507;-72
2022/03/30 09:03:29;;;;;;;25.40;10.43;;;10.10;99.90;;;;;;1921091;73;21612;-70
2022/03/30 09:06:03;;;;;;;35.00;11.22;;;10.10;99.90;;;;;;1921488;73;21256;-71
2022/03/30 09:08:35;;;;;;;26.17;11.30;;;10.10;99.90;;;;;;1922154;74;21150;-70
2022/03/30 09:11:04;;;;;;;33.25;10.53;;;10.20;99.90;;;;;;1901587;74;21099;-71
2022/03/30 09:13:31;;;;;;;32.20;11.00;;;10.10;99.90;;;;;;1920054;73;21096;-71
2022/03/30 09:15:59;;;;;;;27.20;10.43;;;10.20;99.90;;;;;;1919236;73;21115;-72
2022/03/30 09:18:26;;;;;;;34.90;11.10;;;10.40;99.90;;;;;;1923552;73;21102;-72
2022/03/30 09:20:55;;;;;;;27.67;10.53;;;10.40;99.90;;;;;;1925278;73;21123;-72
2022/03/30 09:23:27;;;;;;;23.73;10.18;;;10.30;99.90;;;;;;1919547;73;21127;-71
2022/03/30 09:25:54;;;;;;;33.08;11.68;;;10.30;99.90;;;;;;1919478;73;21122;-71
2022/03/30 09:28:23;;;;;;;33.80;11.12;;;10.40;99.90;;;;;;1893518;74;21166;-71
2022/03/30 09:30:51;;;;;;;22.90;10.75;;;10.50;99.90;;;;;;1923007;73;21128;-71
2022/03/30 09:33:19;;;;;;;23.75;10.75;;;10.40;99.90;;;;;;1921981;73;21527;-72
2022/03/30 09:35:47;;;;;;;32.78;10.75;;;10.40;99.90;;;;;;1925288;73;21111;-71
2022/03/30 09:38:19;;;;;;;28.90;10.25;;;10.30;99.90;;;;;;1925231;74;21079;-71
2022/03/30 09:40:52;;;;;;;24.80;10.25;;;10.20;99.90;;;;;;1923015;73;21118;-75
2022/03/30 09:43:26;;;;;;;20.25;10.13;;;10.30;99.90;;;;;;1922923;73;21129;-70
2022/03/30 09:46:15;;;;;;;25.50;10.32;;;10.40;99.90;;;;;;1923608;73;21572;-75
2022/03/30 09:48:54;;;;;;;40.98;10.58;;;10.50;99.90;;;;;;1920209;73;21194;-74
2022/03/30 09:51:14;;;;;;;29.27;10.78;;;10.50;99.90;;;;;;1923149;73;21181;-73
2022/03/30 09:53:41;;;;;;;36.55;11.18;;;10.50;99.90;;;;;;1921824;74;21111;-75
2022/03/30 09:56:11;;;;;;;29.57;10.93;;;10.20;99.90;;;;;;1854690;75;21110;-75
2022/03/30 09:58:39;;;;;;;29.50;11.38;;;10.20;99.90;;;;;;1927639;73;21133;-73
2022/03/30 10:01:10;;;;;;;29.12;10.50;;;10.30;99.90;;;;;;1920685;73;21189;-73
2022/03/30 10:03:38;;;;;;;37.05;14.33;;;10.30;99.90;;;;;;1925420;74;21138;-72
2022/03/30 10:06:05;;;;;;;34.48;11.80;;;10.50;99.90;;;;;;1924047;73;21173;-71
2022/03/30 10:08:33;;;;;;;32.28;11.65;;;10.50;99.90;;;;;;1925040;74;21188;-72
2022/03/30 10:11:00;;;;;;;27.70;10.82;;;10.40;99.90;;;;;;1921515;73;21120;-73
2022/03/30 10:13:28;;;;;;;34.43;11.85;;;10.40;99.90;;;;;;1921598;73;21120;-74
2022/03/30 10:15:55;;;;;;;27.82;10.55;;;10.40;99.90;;;;;;1923619;74;21155;-72
2022/03/30 10:18:24;;;;;;;31.00;10.48;;;10.50;99.90;;;;;;1925034;74;21470;-70
2022/03/30 10:20:54;;;;;;;29.87;9.75;;;10.60;99.90;;;;;;1922769;73;21515;-71
2022/03/30 10:23:45;;;;;;;26.20;9.88;;;10.70;99.90;;;;;;1923857;74;21453;-69
2022/03/30 10:26:24;;;;;;;29.95;9.78;;;10.70;99.90;;;;;;1917903;74;21215;-70
2022/03/30 10:28:58;;;;;;;37.80;17.90;;;10.90;99.90;;;;;;1925193;74;21163;-70
2022/03/30 10:31:26;;;;;;;33.08;11.97;;;10.80;99.90;;;;;;1882147;75;21108;-70
2022/03/30 10:33:54;;;;;;;27.82;10.68;;;10.70;99.90;;;;;;1949822;72;21173;-82
2022/03/30 10:36:26;;;;;;;28.73;11.97;;;10.80;99.90;;;;;;1960244;73;21121;-73
2022/03/30 10:39:11;;;;;;;31.27;10.63;;;11.00;99.90;;;;;;1925375;74;21070;-76
2022/03/30 10:41:50;;;;;;;39.25;10.40;;;11.20;99.90;;;;;;1889066;76;21548;-76
2022/03/30 10:44:37;;;;;;;29.12;8.90;;;11.20;99.90;;;;;;1911065;75;21120;-76
2022/03/30 10:47:08;;;;;;;36.83;10.28;;;11.20;99.90;;;;;;1888735;76;21135;-76
2022/03/30 10:49:41;;;;;;;30.17;10.58;;;11.10;99.90;;;;;;1912267;75;21159;-76
2022/03/30 10:52:42;;;;;;;29.95;10.68;;;11.30;99.90;;;;;;1951050;73;21114;-77
2022/03/30 10:55:19;;;;;;;26.27;9.83;;;11.30;99.90;;;;;;1935929;73;21147;-76
2022/03/30 10:57:52;;;;;;;25.97;9.68;;;11.40;99.90;;;;;;1957069;73;21234;-77
2022/03/30 11:00:21;;;;;;;26.60;9.80;;;11.70;99.90;;;;;;1942525;72;21120;-75
2022/03/30 11:02:48;;;;;;;24.55;9.45;;;12.00;99.90;;;;;;1960266;73;21510;-77
2022/03/30 11:05:16;;;;;;;29.55;10.58;;;11.70;99.90;;;;;;1940093;73;21180;-76
2022/03/30 11:07:43;;;;;;;33.10;11.25;;;11.80;99.90;;;;;;1927447;73;21216;-75
2022/03/30 11:10:17;;;;;;;31.25;11.15;;;11.40;99.90;;;;;;1953787;73;21092;-77
2022/03/30 11:13:11;;;;;;;26.30;11.30;;;11.70;99.90;;;;;;1960067;73;21103;-76
2022/03/30 11:16:00;;;;;;;34.05;11.30;;;11.70;99.90;;;;;;1952190;72;21193;-77
2022/03/30 11:18:28;;;;;;;;;;;11.70;99.90;;;;;;1929729;73;21178;-76
2022/03/30 11:21:15;;;;;;;32.13;11.15;;;12.20;99.90;;;;;;1956414;73;20161;-76
2022/03/30 11:24:04;;;;;;;30.72;11.50;;;12.50;99.90;;;;;;1952766;73;21061;-78
2022/03/30 11:26:52;;;;;;;30.37;10.63;;;12.50;99.90;;;;;;1958185;73;21500;-72
2022/03/30 11:29:52;;;;;;;33.45;11.05;;;12.60;99.90;;;;;;1923166;73;21125;-71
2022/03/30 11:32:29;;;;;;;31.40;10.48;;;12.50;99.90;;;;;;1953449;73;21155;-68
2022/03/30 11:34:57;;;;;;;36.17;11.48;;;12.10;99.90;;;;;;1943015;73;21144;-69
2022/03/30 11:37:35;;;;;;;31.27;10.88;;;11.80;99.90;;;;;;1899544;75;21521;-69
2022/03/30 11:40:05;;;;;;;34.13;10.43;;;11.90;99.90;;;;;;1898657;75;21175;-69
2022/03/30 11:42:32;;;;;;;28.03;11.83;;;11.90;99.90;;;;;;1899048;75;21169;-69
2022/03/30 11:45:13;;;;;;;27.17;10.85;;;11.90;99.90;;;;;;1898795;75;21584;-69
2022/03/30 11:47:42;;;;;;;;;;;12.10;99.90;;;;;;1901552;75;21146;-70
2022/03/30 11:50:09;;;;;;;32.28;10.55;;;12.00;99.90;;;;;;1897232;75;20147;-70
2022/03/30 11:52:36;;;;;;;20.35;10.03;;;11.70;99.90;;;;;;1898659;75;21626;-68
2022/03/30 11:55:04;;;;;;;32.95;11.30;;;11.50;99.90;;;;;;1898739;75;21075;-69
2022/03/30 11:57:31;;;;;;;26.25;10.15;;;11.30;99.90;;;;;;1899044;75;21083;-69
2022/03/30 12:00:01;;;;;;;29.82;11.05;;;11.40;99.90;;;;;;1864777;75;21091;-69
2022/03/30 12:02:28;;;;;;;21.30;10.15;;;11.40;99.90;;;;;;1910303;74;21161;-70
2022/03/30 12:04:57;;;;;;;28.38;10.10;;;11.50;99.90;;;;;;1916463;74;21123;-71
2022/03/30 12:07:24;;;;;;;27.27;10.10;;;11.50;99.90;;;;;;1881868;76;21108;-75
2022/03/30 12:09:59;;;;;;;30.60;10.63;;;11.40;99.90;;;;;;1891657;75;21078;-70
2022/03/30 12:12:36;;;;;;;27.45;10.10;;;11.30;99.90;;;;;;1911875;74;21162;-69
2022/03/30 12:15:06;;;;;;;26.35;10.88;;;11.40;99.90;;;;;;1911846;75;21099;-69
2022/03/30 12:17:34;;;;;;;27.22;10.43;;;11.60;99.90;;;;;;1911823;74;21516;-69
2022/03/30 12:20:02;;;;;;;29.92;10.25;;;11.70;99.90;;;;;;1898027;74;21120;-70
2022/03/30 12:22:29;;;;;;;23.32;9.73;;;11.60;99.90;;;;;;1904818;74;21215;-69
2022/03/30 12:24:57;;;;;;;25.25;10.45;;;11.90;99.90;;;;;;1897997;74;21107;-70
2022/03/30 12:27:24;;;;;;;20.80;9.85;;;12.10;99.90;;;;;;1898754;74;21542;-71
2022/03/30 12:29:56;;;;;;;29.85;10.72;;;12.10;99.90;;;;;;1881699;76;21124;-70
2022/03/30 12:32:26;;;;;;;22.62;9.58;;;12.30;99.90;;;;;;1941498;73;21483;-70
2022/03/30 12:35:11;;;;;;;29.00;10.30;;;12.40;99.90;;;;;;1910580;74;21116;-70
2022/03/30 12:37:38;;;;;;;26.77;9.75;;;12.40;99.90;;;;;;1926665;73;21512;-69
2022/03/30 12:40:11;;;;;;;30.08;9.55;;;12.60;99.90;;;;;;1921477;74;21150;-71
2022/03/30 12:42:38;;;;;;;27.02;10.10;;;12.60;99.90;;;;;;1916933;73;21073;-71
2022/03/30 12:45:10;;;;;;;24.60;10.00;;;12.40;99.90;;;;;;1875083;76;21092;-72
2022/03/30 12:47:38;;;;;;;26.25;10.23;;;12.30;99.90;;;;;;1936817;72;21113;-71
2022/03/30 12:50:16;;;;;;;23.87;10.20;;;12.50;99.90;;;;;;1933012;73;21112;-70
2022/03/30 12:52:48;;;;;;;29.15;9.63;;;12.50;99.90;;;;;;1933597;73;21170;-73
2022/03/30 12:55:27;;;;;;;16.25;9.55;;;12.70;99.90;;;;;;1946116;73;21147;-74
2022/03/30 12:57:57;;;;;;;18.70;10.48;;;12.80;99.90;;;;;;1960055;73;21113;-70